Time;durP1;ratioP1;P1;durP2;ratioP2;P2;SDS_P1;SDS_P2;PMS_P1;PMS_P2;Temp;Humidity;BMP_temperature;BMP_pressure;BME280_temperature;BME280_humidity;BME280_pressure;Samples;Min_cycle;Max_cycle;Signal;HPM_P1;HPM_P2
2023/03/01 00:00:38;;;;;;;;;;;-1.70;99.90;;;;;;4994539;28;20034;-78
2023/03/01 00:03:04;;;;;;;;;;;-1.80;99.90;;;;;;4992787;28;20326;-78
2023/03/01 00:05:30;;;;;;;;;;;-1.90;99.90;;;;;;4981359;28;20012;-78
2023/03/01 00:07:56;;;;;;;;;;;-1.90;99.90;;;;;;4999302;28;20377;-78
2023/03/01 00:10:22;;;;;;;;;;;-1.90;99.90;;;;;;4995168;28;19945;-78
2023/03/01 00:12:48;;;;;;;;;;;-2.00;99.90;;;;;;4998042;28;19918;-78
2023/03/01 00:15:14;;;;;;;;;;;-2.00;99.90;;;;;;4982342;28;20211;-79
2023/03/01 00:17:40;;;;;;;;;;;-1.90;99.90;;;;;;4999795;28;20008;-79
2023/03/01 00:20:10;;;;;;;;;;;-1.80;99.90;;;;;;4995079;28;20393;-79
2023/03/01 00:22:36;;;;;;;;;;;-1.70;99.90;;;;;;4984352;28;20359;-78
2023/03/01 00:25:02;;;;;;;;;;;-1.60;99.90;;;;;;4997531;28;20280;-78
2023/03/01 00:27:28;;;;;;;;;;;-1.60;99.90;;;;;;4994111;28;20294;-79
2023/03/01 00:29:54;;;;;;;;;;;-1.60;99.90;;;;;;4994996;28;20030;-79
2023/03/01 00:32:20;;;;;;;;;;;-1.50;99.90;;;;;;4978247;28;19918;-78
2023/03/01 00:34:54;;;;;;;;;;;-1.60;99.90;;;;;;4979394;28;19976;-78
2023/03/01 00:37:20;;;;;;;;;;;-1.60;99.90;;;;;;4988718;28;19914;-78
2023/03/01 00:39:47;;;;;;;;;;;-1.60;99.90;;;;;;4985438;28;19917;-78
2023/03/01 00:42:13;;;;;;;;;;;-1.70;99.90;;;;;;4994540;28;19914;-79
2023/03/01 00:44:39;;;;;;;;;;;-1.80;99.90;;;;;;4992795;28;20004;-79
2023/03/01 00:47:05;;;;;;;;;;;-2.00;99.90;;;;;;4994258;28;19917;-79
2023/03/01 00:49:31;;;;;;;;;;;-2.10;99.90;;;;;;4983221;28;19916;-79
2023/03/01 00:51:57;;;;;;;;;;;-2.20;99.90;;;;;;4994601;28;19918;-78
2023/03/01 00:54:23;;;;;;;;;;;-2.30;99.90;;;;;;4992495;28;20459;-78
2023/03/01 00:56:49;;;;;;;;;;;-2.30;99.90;;;;;;4993769;28;19917;-78
2023/03/01 00:59:15;;;;;;;;;;;-2.40;99.90;;;;;;4979534;28;20358;-78
2023/03/01 01:01:41;;;;;;;;;;;-2.40;99.90;;;;;;4996455;28;19929;-79
2023/03/01 01:04:08;;;;;;;;;;;-2.40;99.90;;;;;;4994953;28;20012;-79
2023/03/01 01:06:38;;;;;;;;;;;-2.50;99.90;;;;;;4994793;28;19918;-78
2023/03/01 01:09:06;;;;;;;;;;;-2.50;99.90;;;;;;4975695;28;19917;-78
2023/03/01 01:11:32;;;;;;;;;;;-2.50;99.90;;;;;;4982788;28;19921;-78
2023/03/01 01:13:59;;;;;;;;;;;-2.50;99.90;;;;;;4994766;28;19924;-78
2023/03/01 01:16:26;;;;;;;;;;;-2.60;99.90;;;;;;4994550;28;19921;-78
2023/03/01 01:18:52;;;;;;;;;;;-2.70;99.90;;;;;;4997595;28;20386;-78
2023/03/01 01:21:19;;;;;;;;;;;-2.70;99.90;;;;;;4992410;28;19924;-77
2023/03/01 01:23:46;;;;;;;;;;;-2.70;99.90;;;;;;4997005;28;20099;-77
2023/03/01 01:26:14;;;;;;;;;;;-2.80;99.90;;;;;;4990734;28;19936;-78
2023/03/01 01:28:40;;;;;;;;;;;-2.80;99.90;;;;;;4976363;28;19917;-78
2023/03/01 01:31:06;;;;;;;;;;;-2.70;99.90;;;;;;4981818;28;19914;-78
2023/03/01 01:33:32;;;;;;;;;;;-2.60;99.90;;;;;;4991509;28;20362;-78
2023/03/01 01:35:59;;;;;;;;;;;-2.70;99.90;;;;;;4978404;28;20267;-78
2023/03/01 01:38:25;;;;;;;;;;;-2.80;99.90;;;;;;4984818;28;19920;-78
2023/03/01 01:40:51;;;;;;;;;;;-2.80;99.90;;;;;;4976172;28;20666;-78
2023/03/01 01:43:28;;;;;;;;;;;-2.70;99.90;;;;;;4993521;28;19914;-77
2023/03/01 01:46:00;;;;;;;;;;;-3.00;99.90;;;;;;4980008;28;20336;-79
2023/03/01 01:48:40;;;;;;;;;;;-2.90;99.90;;;;;;4992221;28;20232;-79
2023/03/01 01:51:07;;;;;;;;;;;-2.90;99.90;;;;;;4995903;28;19914;-79
2023/03/01 01:53:33;;;;;;;;;;;-2.90;99.90;;;;;;4992449;28;19918;-77
2023/03/01 01:56:00;;;;;;;;;;;-2.90;99.90;;;;;;4993312;28;20351;-79
2023/03/01 01:58:28;;;;;;;;;;;-2.80;99.90;;;;;;4987072;28;19914;-80
2023/03/01 02:00:54;;;;;;;;;;;-2.90;99.90;;;;;;4996269;28;19929;-80
2023/03/01 02:03:24;;;;;;;;;;;-3.00;99.90;;;;;;4990159;28;20256;-79
2023/03/01 02:06:10;;;;;;;;;;;-3.00;99.90;;;;;;4988793;28;19954;-78
2023/03/01 02:08:38;;;;;;;;;;;-3.10;99.90;;;;;;4982198;28;19925;-79
2023/03/01 02:11:05;;;;;;;;;;;-3.10;99.90;;;;;;4978133;28;19918;-78
2023/03/01 02:13:32;;;;;;;;;;;-3.10;99.90;;;;;;4995933;28;20378;-79
2023/03/01 02:15:58;;;;;;;;;;;-3.20;99.90;;;;;;4978819;28;20414;-78
2023/03/01 02:18:24;;;;;;;;;;;-3.20;99.90;;;;;;4996629;28;19921;-78
2023/03/01 02:20:59;;;;;;;;;;;-3.10;99.90;;;;;;4982293;28;19909;-78
2023/03/01 02:23:25;;;;;;;;;;;-3.20;1.00;;;;;;4983447;28;20374;-79
2023/03/01 02:26:00;;;;;;;;;;;-3.00;1.00;;;;;;4992061;28;19925;-79
2023/03/01 02:28:30;;;;;;;;;;;-2.90;1.00;;;;;;4992747;28;19918;-78
2023/03/01 02:33:55;;;;;;;;;;;-2.70;99.90;;;;;;4938913;28;19925;-78
2023/03/01 02:36:23;;;;;;;;;;;-2.60;99.90;;;;;;4989122;28;19910;-79
2023/03/01 02:38:51;;;;;;;;;;;-2.60;99.90;;;;;;4975143;28;19909;-78
2023/03/01 02:41:19;;;;;;;;;;;-2.50;99.90;;;;;;4979594;28;19910;-79
2023/03/01 02:43:46;;;;;;;;;;;-2.30;99.90;;;;;;4974192;28;19920;-78
2023/03/01 02:46:17;;;;;;;;;;;-2.40;99.90;;;;;;4974893;28;19918;-79
2023/03/01 02:48:48;;;;;;;;;;;-2.50;99.90;;;;;;4993988;28;20418;-78
2023/03/01 02:51:37;;;;;;;;;;;-2.60;99.90;;;;;;4981454;28;20343;-78
2023/03/01 02:54:06;;;;;;;;;;;-2.70;99.90;;;;;;4986393;28;19914;-78
2023/03/01 02:56:32;;;;;;;;;;;-2.70;99.90;;;;;;4990592;28;19939;-81
2023/03/01 02:59:00;;;;;;;;;;;-2.70;99.90;;;;;;4978458;28;19933;-78
2023/03/01 03:01:36;;;;;;;;;;;-2.60;99.90;;;;;;4964385;28;19922;-79
2023/03/01 03:04:06;;;;;;;;;;;-2.70;99.90;;;;;;4984012;28;19918;-78
2023/03/01 03:06:32;;;;;;;;;;;-2.80;99.90;;;;;;4991777;28;20355;-78
2023/03/01 03:08:59;;;;;;;;;;;-2.90;99.90;;;;;;4988081;28;19917;-80
2023/03/01 03:11:25;;;;;;;;;;;-2.80;99.90;;;;;;4980338;28;19914;-79
2023/03/01 03:13:52;;;;;;;;;;;-2.80;99.90;;;;;;4982351;28;19917;-80
2023/03/01 03:16:18;;;;;;;;;;;-2.80;99.90;;;;;;4985073;28;19910;-79
2023/03/01 03:18:45;;;;;;;;;;;-2.80;99.90;;;;;;4977606;28;19914;-80
2023/03/01 03:21:11;;;;;;;;;;;-2.80;99.90;;;;;;4991310;28;19914;-80
2023/03/01 03:23:37;;;;;;;;;;;-2.80;99.90;;;;;;4993764;28;19914;-80
2023/03/01 03:26:04;;;;;;;;;;;-2.80;99.90;;;;;;4988480;28;20274;-80
2023/03/01 03:28:33;;;;;;;;;;;-2.90;99.90;;;;;;4989310;28;19918;-80
2023/03/01 03:31:03;;;;;;;;;;;-2.80;99.90;;;;;;4994620;28;19925;-80
2023/03/01 03:33:32;;;;;;;;;;;-2.90;99.90;;;;;;4986664;28;19928;-80
2023/03/01 03:35:58;;;;;;;;;;;-3.00;99.90;;;;;;4997929;28;19918;-80
2023/03/01 03:38:24;;;;;;;;;;;-3.00;1.00;;;;;;5000045;28;19960;-80
2023/03/01 03:41:02;;;;;;;;;;;-3.10;1.00;;;;;;4993932;28;19910;-80
2023/03/01 03:43:28;;;;;;;;;;;-3.10;1.00;;;;;;4980200;28;20383;-80
2023/03/01 03:45:56;;;;;;;;;;;-3.10;1.00;;;;;;4994838;28;19918;-80
2023/03/01 03:48:22;;;;;;;;;;;-3.10;1.00;;;;;;4987966;28;19973;-78
2023/03/01 03:50:49;;;;;;;;;;;-3.00;1.00;;;;;;4996744;28;19914;-78
2023/03/01 03:53:16;;;;;;;;;;;-3.10;1.00;;;;;;4995638;28;19914;-80
2023/03/01 03:55:41;;;;;;;;;;;-3.00;1.00;;;;;;4994648;28;19917;-79
2023/03/01 03:58:08;;;;;;;;;;;-3.00;1.00;;;;;;4992143;28;19964;-79
2023/03/01 04:00:35;;;;;;;;;;;-3.10;1.00;;;;;;4982301;28;19926;-79
2023/03/01 04:03:01;;;;;;;;;;;-3.10;1.00;;;;;;4999159;28;20381;-79
2023/03/01 04:05:27;;;;;;;;;;;-3.00;1.00;;;;;;4981248;28;20367;-80
2023/03/01 04:08:00;;;;;;;;;;;-3.20;1.00;;;;;;4997996;28;19940;-79
2023/03/01 04:10:28;;;;;;;;;;;-3.30;1.00;;;;;;4997530;28;19914;-79
2023/03/01 04:12:55;;;;;;;;;;;-3.20;1.00;;;;;;4979278;28;19913;-79
2023/03/01 04:15:23;;;;;;;;;;;-3.30;1.00;;;;;;4995362;28;19914;-79
2023/03/01 04:17:51;;;;;;;;;;;-3.20;1.00;;;;;;4994726;28;20278;-79
2023/03/01 04:20:24;;;;;;;;;;;-3.10;1.00;;;;;;4994203;28;20382;-79
2023/03/01 04:23:10;;;;;;;;;;;-2.90;1.00;;;;;;4981460;28;19920;-79
2023/03/01 04:25:48;;;;;;;;;;;-2.70;1.00;;;;;;4982999;28;19925;-78
2023/03/01 04:28:14;;;;;;;;;;;-2.50;1.00;;;;;;5002445;28;20291;-78
2023/03/01 04:30:41;;;;;;;;;;;-2.60;1.00;;;;;;4993481;28;19961;-78
2023/03/01 04:33:08;;;;;;;;;;;-2.50;99.90;;;;;;4995300;28;19918;-80
2023/03/01 04:35:34;;;;;;;;;;;-2.20;99.90;;;;;;4993754;28;19921;-78
2023/03/01 04:38:00;;;;;;;;;;;-1.90;99.90;;;;;;4991095;28;20286;-77
2023/03/01 04:40:26;;;;;;;;;;;-1.70;99.90;;;;;;4995487;28;19958;-78
2023/03/01 04:42:52;;;;;;;;;;;-1.60;99.90;;;;;;5000871;28;19914;-80
2023/03/01 04:45:18;;;;;;;;;;;-1.30;99.90;;;;;;4998181;28;19937;-80
2023/03/01 04:47:45;;;;;;;;;;;-1.30;99.90;;;;;;4992886;28;19929;-78
2023/03/01 04:50:13;;;;;;;;;;;-1.10;99.90;;;;;;4994374;28;19914;-78
2023/03/01 04:52:39;;;;;;;;;;;-0.80;99.90;;;;;;4972205;28;19918;-81
2023/03/01 04:55:05;;;;;;;;;;;-0.80;99.90;;;;;;5001012;28;19920;-81
2023/03/01 04:57:31;;;;;;;;;;;-0.80;99.90;;;;;;5001694;28;19910;-82
2023/03/01 04:59:57;;;;;;;;;;;-0.80;99.90;;;;;;4992665;28;20516;-79
2023/03/01 05:02:23;;;;;;;;;;;-0.80;99.90;;;;;;5002868;28;19924;-80
2023/03/01 05:04:49;;;;;;;;;;;-0.70;99.90;;;;;;4998564;28;19918;-80
2023/03/01 05:07:19;;;;;;;;;;;-0.70;99.90;;;;;;4994522;28;19918;-80
2023/03/01 05:09:47;;;;;;;;;;;-0.70;99.90;;;;;;4993710;28;19917;-78
2023/03/01 05:12:14;;;;;;;;;;;-0.70;99.90;;;;;;4995909;28;20373;-80
2023/03/01 05:14:41;;;;;;;;;;;-0.70;99.90;;;;;;4993669;28;19918;-82
2023/03/01 05:17:07;;;;;;;;;;;-0.80;99.90;;;;;;4978861;28;19914;-82
2023/03/01 05:19:33;;;;;;;;;;;-0.80;99.90;;;;;;4993994;28;19913;-82
2023/03/01 05:22:03;;;;;;;;;;;-0.70;99.90;;;;;;4985448;28;19932;-81
2023/03/01 05:24:30;;;;;;;;;;;-0.70;99.90;;;;;;4998566;28;19918;-81
2023/03/01 05:26:56;;;;;;;;;;;-0.60;99.90;;;;;;4993396;28;19918;-82
2023/03/01 05:29:26;;;;;;;;;;;-0.60;99.90;;;;;;4979250;28;19972;-82
2023/03/01 05:31:53;;;;;;;;;;;-0.70;99.90;;;;;;4992500;28;19925;-82
2023/03/01 05:34:23;;;;;;;;;;;-0.60;99.90;;;;;;5003182;28;19924;-82
2023/03/01 05:36:52;;;;;;;;;;;-0.50;99.90;;;;;;4996994;28;19921;-81
2023/03/01 05:39:21;;;;;;;;;;;-0.50;99.90;;;;;;4996937;28;19920;-82
2023/03/01 05:41:47;;;;;;;;;;;-0.50;99.90;;;;;;4999717;28;19920;-80
2023/03/01 05:44:13;;;;;;;;;;;-0.50;99.90;;;;;;4998773;28;19921;-80
2023/03/01 05:46:39;;;;;;;;;;;-0.50;99.90;;;;;;4993183;28;19921;-80
2023/03/01 05:49:05;;;;;;;;;;;-0.50;99.90;;;;;;4994556;28;19924;-80
2023/03/01 05:51:32;;;;;;;;;;;-0.40;99.90;;;;;;4996650;28;19909;-80
2023/03/01 05:53:58;;;;;;;;;;;-0.40;99.90;;;;;;4995522;28;20714;-78
2023/03/01 05:56:24;;;;;;;;;;;-0.30;99.90;;;;;;5000748;28;19914;-78
2023/03/01 05:58:50;;;;;;;;;;;-0.10;99.90;;;;;;4992366;28;19964;-78
2023/03/01 06:01:16;;;;;;;;;;;-0.20;99.90;;;;;;4995120;28;20025;-78
2023/03/01 06:03:42;;;;;;;;;;;-0.10;99.90;;;;;;4975109;28;19929;-80
2023/03/01 06:06:08;;;;;;;;;;;-0.10;99.90;;;;;;4991506;28;19925;-76
2023/03/01 06:08:34;;;;;;;;;;;-0.10;99.90;;;;;;4980142;28;20441;-77
2023/03/01 06:11:00;;;;;;;;;;;-0.10;99.90;;;;;;4988571;28;20546;-79
2023/03/01 06:13:25;;;;;;;;;;;-0.10;99.90;;;;;;4993373;28;19976;-77
2023/03/01 06:15:51;;;;;;;;;;;-0.10;99.90;;;;;;5008087;28;20006;-78
2023/03/01 06:18:17;;;;;;;;;;;-0.10;99.90;;;;;;4999028;28;20016;-75
2023/03/01 06:20:43;;;;;;;;;;;-0.10;99.90;;;;;;5003489;28;19913;-80
2023/03/01 06:23:09;;;;;;;;;;;0.00;99.90;;;;;;4999296;28;19922;-75
2023/03/01 06:25:35;;;;;;;;;;;-0.10;99.90;;;;;;4995227;28;19961;-75
2023/03/01 06:28:01;;;;;;;;;;;0.00;99.90;;;;;;4974264;28;19914;-76
2023/03/01 06:30:27;;;;;;;;;;;0.00;99.90;;;;;;4992267;28;19914;-77
2023/03/01 06:33:00;;;;;;;;;;;0.00;99.90;;;;;;4974819;28;19914;-76
2023/03/01 06:35:29;;;;;;;;;;;0.10;99.90;;;;;;4993046;28;19914;-77
2023/03/01 06:37:55;;;;;;;;;;;0.10;99.90;;;;;;4992396;28;19909;-77
2023/03/01 06:40:21;;;;;;;;;;;0.20;99.90;;;;;;4991451;28;19994;-77
2023/03/01 06:42:48;;;;;;;;;;;0.20;99.90;;;;;;4992219;28;20418;-77
2023/03/01 06:45:15;;;;;;;;;;;0.20;99.90;;;;;;4993020;28;19914;-78
2023/03/01 06:47:41;;;;;;;;;;;0.30;99.90;;;;;;4996821;28;19917;-79
2023/03/01 06:50:07;;;;;;;;;;;0.40;99.90;;;;;;5009758;28;20283;-78
2023/03/01 06:52:33;;;;;;;;;;;0.40;99.90;;;;;;4993241;28;20355;-76
2023/03/01 06:54:59;;;;;;;;;;;0.40;99.90;;;;;;4991999;28;19924;-76
2023/03/01 06:57:25;;;;;;;;;;;0.50;99.90;;;;;;4993616;28;19910;-79
2023/03/01 06:59:51;;;;;;;;;;;0.70;99.90;;;;;;5002415;28;19913;-76
2023/03/01 07:02:17;;;;;;;;;;;1.10;99.90;;;;;;5007509;28;20008;-78
2023/03/01 07:04:43;;;;;;;;;;;1.50;99.90;;;;;;5014802;28;19913;-78
2023/03/01 07:07:09;;;;;;;;;;;1.80;99.90;;;;;;5011322;28;19928;-78
2023/03/01 07:09:35;;;;;;;;;;;1.60;99.90;;;;;;4995529;28;19925;-77
2023/03/01 07:12:02;;;;;;;;;;;1.80;99.90;;;;;;4998471;28;20232;-77
2023/03/01 07:14:28;;;;;;;;;;;2.00;99.90;;;;;;4996673;28;19940;-76
2023/03/01 07:16:54;;;;;;;;;;;2.20;99.90;;;;;;4995991;28;19990;-76
2023/03/01 07:19:20;;;;;;;;;;;2.20;99.90;;;;;;4996737;28;19914;-78
2023/03/01 07:21:46;;;;;;;;;;;2.10;99.90;;;;;;4994514;28;19918;-79
2023/03/01 07:24:12;;;;;;;;;;;1.90;99.90;;;;;;4996754;28;19964;-78
2023/03/01 07:26:38;;;;;;;;;;;1.90;99.90;;;;;;4996421;28;19996;-76
2023/03/01 07:29:05;;;;;;;;;;;2.00;99.90;;;;;;4995697;28;19917;-79
2023/03/01 07:31:31;;;;;;;;;;;1.90;99.90;;;;;;4995533;28;19921;-79
2023/03/01 07:33:57;;;;;;;;;;;2.10;99.90;;;;;;4995390;28;19925;-77
2023/03/01 07:36:23;;;;;;;;;;;2.40;99.90;;;;;;4998334;28;19913;-79
2023/03/01 07:38:49;;;;;;;;;;;2.50;99.90;;;;;;4997669;28;19957;-78
2023/03/01 07:41:15;;;;;;;;;;;2.90;99.90;;;;;;4995760;28;20266;-77
2023/03/01 07:43:41;;;;;;;;;;;2.80;99.90;;;;;;4995851;28;19914;-77
2023/03/01 07:46:07;;;;;;;;;;;3.00;99.90;;;;;;4998690;28;19980;-77
2023/03/01 07:48:33;;;;;;;;;;;3.40;99.90;;;;;;4999916;28;19924;-78
2023/03/01 07:51:03;;;;;;;;;;;3.20;99.90;;;;;;4995070;28;19925;-77
2023/03/01 07:53:31;;;;;;;;;;;3.50;99.90;;;;;;4997033;28;20386;-76
2023/03/01 07:56:01;;;;;;;;;;;3.70;99.90;;;;;;4995196;28;20355;-76
2023/03/01 07:58:26;;;;;;;;;;;3.90;99.90;;;;;;4995756;28;20394;-76
2023/03/01 08:00:52;;;;;;;;;;;4.00;99.90;;;;;;4995740;28;19921;-77
2023/03/01 08:03:18;;;;;;;;;;;4.10;99.90;;;;;;4995967;28;19918;-78
2023/03/01 08:05:45;;;;;;;;;;;4.20;99.90;;;;;;4995658;28;19914;-78
2023/03/01 08:08:10;;;;;;;;;;;4.20;99.90;;;;;;4999145;28;20370;-77
2023/03/01 08:10:36;;;;;;;;;;;4.50;99.90;;;;;;4995356;28;19917;-77
2023/03/01 08:13:02;;;;;;;;;;;4.50;99.90;;;;;;4992067;28;19980;-77
2023/03/01 08:15:28;;;;;;;;;;;4.80;99.90;;;;;;4988270;28;20485;-78
2023/03/01 08:17:54;;;;;;;;;;;4.50;99.90;;;;;;4997204;28;19917;-77
2023/03/01 08:20:20;;;;;;;;;;;4.90;99.90;;;;;;4998124;28;19990;-77
2023/03/01 08:22:46;;;;;;;;;;;4.60;99.90;;;;;;4994434;28;19921;-77
2023/03/01 08:25:12;;;;;;;;;;;4.30;99.90;;;;;;4994539;28;19914;-77
2023/03/01 08:27:38;;;;;;;;;;;4.90;99.90;;;;;;4994364;28;19980;-77
2023/03/01 08:30:04;;;;;;;;;;;5.30;99.90;;;;;;4994802;28;19918;-77
2023/03/01 08:32:34;;;;;;;;;;;5.10;99.90;;;;;;4998770;28;19924;-79
2023/03/01 08:35:00;;;;;;;;;;;5.20;99.90;;;;;;4995156;28;19937;-79
2023/03/01 08:37:27;;;;;;;;;;;5.50;99.90;;;;;;4997016;28;19914;-78
2023/03/01 08:39:54;;;;;;;;;;;6.10;99.90;;;;;;4994536;28;19917;-78
2023/03/01 08:42:20;;;;;;;;;;;6.00;99.90;;;;;;4998703;28;19929;-78
2023/03/01 08:44:46;;;;;;;;;;;5.70;99.90;;;;;;4993558;28;19914;-78
2023/03/01 08:47:12;;;;;;;;;;;6.30;99.90;;;;;;4993176;28;19921;-75
2023/03/01 08:49:38;;;;;;;;;;;4.80;99.90;;;;;;4995329;28;19925;-79
2023/03/01 08:52:04;;;;;;;;;;;5.70;99.90;;;;;;4994315;28;19913;-77
2023/03/01 08:54:30;;;;;;;;;;;6.00;99.90;;;;;;4991768;28;20000;-77
2023/03/01 08:56:58;;;;;;;;;;;5.80;99.90;;;;;;4997271;28;20096;-76
2023/03/01 08:59:25;;;;;;;;;;;5.70;99.90;;;;;;4994176;28;19937;-79
2023/03/01 09:01:51;;;;;;;;;;;6.30;99.90;;;;;;4994096;28;20274;-78
2023/03/01 09:04:17;;;;;;;;;;;6.30;99.90;;;;;;4988917;28;19914;-77
2023/03/01 09:06:43;;;;;;;;;;;6.40;99.90;;;;;;4994920;28;20318;-78
2023/03/01 09:09:14;;;;;;;;;;;5.90;99.90;;;;;;4995494;28;19917;-77
2023/03/01 09:11:40;;;;;;;;;;;6.00;99.90;;;;;;4994392;28;19918;-79
2023/03/01 09:14:06;;;;;;;;;;;6.80;99.90;;;;;;4975540;28;20059;-79
2023/03/01 09:16:35;;;;;;;;;;;7.10;99.90;;;;;;4999857;28;19924;-79
2023/03/01 09:19:02;;;;;;;;;;;7.00;99.90;;;;;;4991227;28;19914;-76
2023/03/01 09:21:28;;;;;;;;;;;5.60;99.90;;;;;;4996924;28;19921;-75
2023/03/01 09:23:55;;;;;;;;;;;5.90;99.90;;;;;;4996393;28;19914;-76
2023/03/01 09:26:22;;;;;;;;;;;5.90;99.90;;;;;;4994846;28;19917;-75
2023/03/01 09:28:52;;;;;;;;;;;5.80;99.90;;;;;;4994094;28;20386;-76
2023/03/01 09:31:19;;;;;;;;;;;5.30;99.90;;;;;;4994482;28;19913;-76
2023/03/01 09:33:47;;;;;;;;;;;6.30;99.90;;;;;;4994151;28;19918;-75
2023/03/01 09:36:14;;;;;;;;;;;6.90;99.90;;;;;;4992524;28;19976;-82
2023/03/01 09:38:40;;;;;;;;;;;6.80;99.90;;;;;;4978592;28;19952;-79
2023/03/01 09:41:11;;;;;;;;;;;6.40;99.90;;;;;;4993065;28;19925;-77
2023/03/01 09:43:40;;;;;;;;;;;6.30;99.90;;;;;;4980329;28;19921;-78
2023/03/01 09:46:08;;;;;;;;;;;7.10;99.90;;;;;;5000299;28;19914;-79
2023/03/01 09:48:42;;;;;;;;;;;7.40;99.90;;;;;;4997860;28;19925;-78
2023/03/01 09:51:12;;;;;;;;;;;7.20;99.90;;;;;;4992238;28;20654;-75
2023/03/01 09:53:38;;;;;;;;;;;7.10;99.90;;;;;;4996328;28;19914;-77
2023/03/01 09:56:24;;;;;;;;;;;6.70;99.90;;;;;;4994770;28;19929;-80
2023/03/01 09:58:58;;;;;;;;;;;6.00;99.90;;;;;;5000087;28;19925;-76
2023/03/01 10:01:31;;;;;;;;;;;5.80;99.90;;;;;;4994044;28;19922;-77
2023/03/01 10:03:57;;;;;;;;;;;5.30;99.90;;;;;;5002205;28;19917;-77
2023/03/01 10:06:23;;;;;;;;;;;5.20;99.90;;;;;;4998851;28;19967;-78
2023/03/01 10:08:53;;;;;;;;;;;5.10;99.90;;;;;;4996279;28;20390;-78
2023/03/01 10:11:22;;;;;;;;;;;5.30;99.90;;;;;;4991183;28;19914;-77
2023/03/01 10:13:53;;;;;;;;;;;5.30;99.90;;;;;;4993289;28;19921;-81
2023/03/01 10:16:24;;;;;;;;;;;5.20;99.90;;;;;;4983538;28;22332;-79
2023/03/01 10:18:53;;;;;;;;;;;5.10;99.90;;;;;;4992470;28;19929;-77
2023/03/01 10:21:20;;;;;;;;;;;5.10;99.90;;;;;;4991938;28;20089;-77
2023/03/01 10:23:46;;;;;;;;;;;5.40;99.90;;;;;;4993010;28;20413;-79
2023/03/01 10:26:19;;;;;;;;;;;5.30;99.90;;;;;;4981897;28;19910;-78
2023/03/01 10:28:57;;;;;;;;;;;5.40;99.90;;;;;;4993429;28;20400;-79
2023/03/01 10:31:28;;;;;;;;;;;5.40;99.90;;;;;;4991619;28;19914;-77
2023/03/01 10:33:56;;;;;;;;;;;5.40;99.90;;;;;;4991968;28;19918;-80
2023/03/01 10:36:23;;;;;;;;;;;5.60;99.90;;;;;;4975717;28;19921;-77
2023/03/01 10:38:57;;;;;;;;;;;5.50;99.90;;;;;;4993037;28;19918;-83
2023/03/01 10:41:25;;;;;;;;;;;5.70;99.90;;;;;;4992147;28;19925;-76
2023/03/01 10:44:00;;;;;;;;;;;5.70;99.90;;;;;;4992163;28;19921;-76
2023/03/01 10:46:33;;;;;;;;;;;5.50;99.90;;;;;;4998082;28;19913;-76
2023/03/01 10:49:19;;;;;;;;;;;5.60;99.90;;;;;;4996169;28;19918;-76
2023/03/01 10:51:46;;;;;;;;;;;5.70;99.90;;;;;;4995187;28;19918;-77
2023/03/01 10:54:31;;;;;;;;;;;5.80;99.90;;;;;;4996050;28;19914;-77
2023/03/01 10:56:59;;;;;;;;;;;5.90;99.90;;;;;;4995647;28;19914;-77
2023/03/01 10:59:25;;;;;;;;;;;6.00;99.90;;;;;;4992722;28;19914;-75
2023/03/01 11:02:10;;;;;;;;;;;6.00;99.90;;;;;;4994994;28;19926;-77
2023/03/01 11:04:36;;;;;;;;;;;5.90;99.90;;;;;;4998472;28;19914;-82
2023/03/01 11:07:02;;;;;;;;;;;5.90;99.90;;;;;;4992254;28;19918;-80
2023/03/01 11:09:37;;;;;;;;;;;6.00;99.90;;;;;;4992658;28;19922;-79
2023/03/01 11:12:04;;;;;;;;;;;6.10;99.90;;;;;;4994485;28;20227;-77
2023/03/01 11:14:35;;;;;;;;;;;6.10;99.90;;;;;;4995978;28;19925;-78
2023/03/01 11:17:03;;;;;;;;;;;6.20;99.90;;;;;;4996300;28;19944;-79
2023/03/01 11:19:29;;;;;;;;;;;6.30;99.90;;;;;;4989544;28;20370;-79
2023/03/01 11:22:11;;;;;;;;;;;6.30;99.90;;;;;;4966578;28;19914;-79
2023/03/01 11:24:42;;;;;;;;;;;6.40;99.90;;;;;;4996578;28;20259;-77
2023/03/01 11:27:17;;;;;;;;;;;6.50;99.90;;;;;;4992144;28;19925;-81
2023/03/01 11:30:06;;;;;;;;;;;6.60;99.90;;;;;;4992414;28;19922;-77
2023/03/01 11:32:38;;;;;;;;;;;6.40;99.90;;;;;;4966026;28;20403;-79
2023/03/01 11:35:25;;;;;;;;;;;6.40;99.90;;;;;;4992446;28;19914;-74
2023/03/01 11:38:11;;;;;;;;;;;6.50;99.90;;;;;;5002410;28;20378;-75
2023/03/01 11:40:40;;;;;;;;;;;6.80;99.90;;;;;;4983346;28;20362;-75
2023/03/01 11:43:22;;;;;;;;;;;7.00;99.90;;;;;;4992377;28;19921;-84
2023/03/01 11:46:07;;;;;;;;;;;6.80;99.90;;;;;;5002509;28;19914;-76
2023/03/01 11:48:38;;;;;;;;;;;6.70;99.90;;;;;;4999744;28;19940;-78
2023/03/01 11:51:08;;;;;;;;;;;6.60;99.90;;;;;;4989446;28;19917;-76
2023/03/01 11:53:50;;;;;;;;;;;6.70;99.90;;;;;;4996249;28;19925;-78
2023/03/01 11:56:22;;;;;;;;;;;6.80;99.90;;;;;;5000258;28;20390;-74
2023/03/01 11:58:52;;;;;;;;;;;6.80;99.90;;;;;;4995944;28;20264;-75
2023/03/01 12:01:24;;;;;;;;;;;6.80;99.90;;;;;;4995470;28;19932;-75
2023/03/01 12:04:08;;;;;;;;;;;6.90;99.90;;;;;;4986794;28;19926;-76
2023/03/01 12:06:53;;;;;;;;;;;6.90;99.90;;;;;;4985097;28;20379;-79
2023/03/01 12:09:42;;;;;;;;;;;6.80;99.90;;;;;;4983157;28;20398;-77
2023/03/01 12:12:25;;;;;;;;;;;7.10;99.90;;;;;;4983911;28;20174;-78
2023/03/01 12:14:59;;;;;;;;;;;7.10;99.90;;;;;;4994157;28;19918;-76
2023/03/01 12:17:37;;;;;;;;;;;7.00;99.90;;;;;;4995206;28;19913;-76
2023/03/01 12:20:10;;;;;;;;;;;7.30;99.90;;;;;;4994750;28;19913;-76
2023/03/01 12:22:36;;;;;;;;;;;7.20;99.90;;;;;;5001518;28;19944;-76
2023/03/01 12:25:20;;;;;;;;;;;7.30;99.90;;;;;;4986091;28;19910;-78
2023/03/01 12:27:49;;;;;;;;;;;7.20;99.90;;;;;;5005936;28;19918;-76
2023/03/01 12:30:21;;;;;;;;;;;7.30;99.90;;;;;;4995656;28;19922;-79
2023/03/01 12:33:08;;;;;;;;;;;7.50;99.90;;;;;;4987426;28;19921;-79
2023/03/01 12:35:53;;;;;;;;;;;7.50;99.90;;;;;;4989601;28;20290;-76
2023/03/01 12:38:19;;;;;;;;;;;7.60;99.90;;;;;;4992677;28;19918;-80
2023/03/01 12:40:57;;;;;;;;;;;7.70;99.90;;;;;;4995095;28;20283;-76
2023/03/01 12:43:46;;;;;;;;;;;7.70;99.90;;;;;;4990690;28;19914;-79
2023/03/01 12:46:35;;;;;;;;;;;7.50;99.90;;;;;;4987567;28;20405;-76
2023/03/01 12:49:07;;;;;;;;;;;7.70;99.90;;;;;;4998057;28;20279;-77
2023/03/01 12:51:35;;;;;;;;;;;7.80;99.90;;;;;;4997175;28;19917;-77
2023/03/01 12:54:14;;;;;;;;;;;7.60;99.90;;;;;;4996290;28;19914;-82
2023/03/01 12:56:41;;;;;;;;;;;7.60;99.90;;;;;;5000051;28;19978;-81
2023/03/01 12:59:19;;;;;;;;;;;7.70;99.90;;;;;;4994059;28;19920;-76
2023/03/01 13:01:48;;;;;;;;;;;7.90;99.90;;;;;;4991391;28;19925;-78
2023/03/01 13:04:14;;;;;;;;;;;7.90;99.90;;;;;;4996278;28;19929;-79
2023/03/01 13:06:56;;;;;;;;;;;8.00;99.90;;;;;;4990714;28;19917;-74
2023/03/01 13:09:43;;;;;;;;;;;8.10;99.90;;;;;;4991648;28;19922;-73
2023/03/01 13:12:27;;;;;;;;;;;7.90;99.90;;;;;;4991911;28;19920;-79
2023/03/01 13:14:54;;;;;;;;;;;8.20;99.90;;;;;;4997713;28;19914;-74
2023/03/01 13:17:30;;;;;;;;;;;8.30;99.90;;;;;;4979828;28;19909;-75
2023/03/01 13:19:57;;;;;;;;;;;8.30;99.90;;;;;;4994165;28;19973;-73
2023/03/01 13:22:31;;;;;;;;;;;8.60;99.90;;;;;;4998523;28;19914;-81
2023/03/01 13:25:17;;;;;;;;;;;8.60;99.90;;;;;;4997161;28;20290;-76
2023/03/01 13:27:44;;;;;;;;;;;8.30;99.90;;;;;;4993112;28;19921;-78
2023/03/01 13:30:29;;;;;;;;;;;8.20;99.90;;;;;;4993944;28;19925;-79
2023/03/01 13:33:15;;;;;;;;;;;8.30;99.90;;;;;;4995478;28;19925;-84
2023/03/01 13:35:42;;;;;;;;;;;8.40;99.90;;;;;;4995175;28;19918;-81
2023/03/01 13:38:27;;;;;;;;;;;8.20;99.90;;;;;;4984208;28;19910;-77
2023/03/01 13:40:52;;;;;;;;;;;8.40;99.90;;;;;;5002263;28;19913;-83
2023/03/01 13:43:34;;;;;;;;;;;8.40;99.90;;;;;;4992542;28;19964;-80
2023/03/01 13:46:01;;;;;;;;;;;8.30;99.90;;;;;;4994217;28;19913;-81
2023/03/01 13:48:29;;;;;;;;;;;8.40;99.90;;;;;;4980449;28;19921;-75
2023/03/01 13:51:00;;;;;;;;;;;8.40;99.90;;;;;;4993517;28;19926;-74
2023/03/01 13:53:29;;;;;;;;;;;8.30;99.90;;;;;;4992161;28;19921;-76
2023/03/01 13:55:56;;;;;;;;;;;8.40;99.90;;;;;;4993857;28;19964;-78
2023/03/01 13:58:24;;;;;;;;;;;8.60;99.90;;;;;;4997169;28;19913;-79
2023/03/01 14:00:57;;;;;;;;;;;8.70;99.90;;;;;;4998648;28;19925;-78
2023/03/01 14:03:23;;;;;;;;;;;8.90;99.90;;;;;;4997316;28;19917;-77
2023/03/01 14:06:12;;;;;;;;;;;8.80;99.90;;;;;;4994352;28;19929;-80
2023/03/01 14:08:38;;;;;;;;;;;9.00;99.90;;;;;;5013564;28;20375;-79
2023/03/01 14:11:13;;;;;;;;;;;8.80;99.90;;;;;;5011530;28;19925;-82
2023/03/01 14:13:57;;;;;;;;;;;8.80;99.90;;;;;;4996546;28;19914;-76
2023/03/01 14:16:24;;;;;;;;;;;8.60;99.90;;;;;;4997068;28;19913;-83
2023/03/01 14:19:13;;;;;;;;;;;8.60;99.90;;;;;;5000871;28;19921;-79
2023/03/01 14:21:39;;;;;;;;;;;8.60;99.90;;;;;;4986260;28;19914;-77
2023/03/01 14:24:05;;;;;;;;;;;8.80;99.90;;;;;;4996590;28;19914;-81
2023/03/01 14:26:33;;;;;;;;;;;9.00;99.90;;;;;;4980367;28;19933;-82
2023/03/01 14:28:59;;;;;;;;;;;9.20;99.90;;;;;;4997552;28;20377;-77
2023/03/01 14:31:36;;;;;;;;;;;9.10;99.30;;;;;;4993736;28;20029;-78
2023/03/01 14:34:03;;;;;;;;;;;9.20;98.70;;;;;;4995035;28;19941;-81
2023/03/01 14:36:30;;;;;;;;;;;9.10;99.70;;;;;;5003107;28;19921;-80
2023/03/01 14:39:00;;;;;;;;;;;8.90;99.30;;;;;;4996994;28;19918;-80
2023/03/01 14:41:28;;;;;;;;;;;9.00;99.30;;;;;;5014728;28;19930;-81